Time;durP1;ratioP1;P1;durP2;ratioP2;P2;SDS_P1;SDS_P2;PMS_P1;PMS_P2;Temp;Humidity;BMP_temperature;BMP_pressure;BME280_temperature;BME280_humidity;BME280_pressure;Samples;Min_cycle;Max_cycle;Signal;HPM_P1;HPM_P2
2023/07/10 00:01:39;;;;;;;42.92;30.20;;;20.40;99.90;;;;;;5076307;28;20660;-83
2023/07/10 00:04:17;;;;;;;44.72;30.50;;;20.40;99.90;;;;;;5058615;28;20280;-83
2023/07/10 00:06:45;;;;;;;43.70;29.77;;;20.30;99.90;;;;;;5077103;28;20264;-83
2023/07/10 00:09:11;;;;;;;39.80;29.88;;;20.30;99.90;;;;;;5058414;28;20182;-83
2023/07/10 00:11:37;;;;;;;37.20;29.50;;;20.30;99.90;;;;;;5059221;28;20276;-83
2023/07/10 00:14:19;;;;;;;38.20;27.17;;;20.30;99.90;;;;;;5058505;28;20208;-83
2023/07/10 00:16:45;;;;;;;41.15;28.77;;;20.30;99.90;;;;;;5058993;28;20197;-83
2023/07/10 00:19:13;;;;;;;41.55;31.50;;;20.30;99.90;;;;;;5059196;28;20208;-83
2023/07/10 00:21:39;;;;;;;38.10;28.90;;;20.20;99.90;;;;;;5059461;28;20213;-83
2023/07/10 00:24:05;;;;;;;44.53;31.70;;;20.20;99.90;;;;;;5059661;28;20262;-83
2023/07/10 00:26:31;;;;;;;49.05;33.92;;;20.10;99.90;;;;;;5077203;28;20181;-83
2023/07/10 00:29:00;;;;;;;45.67;33.03;;;20.00;99.90;;;;;;5077581;28;20174;-83
2023/07/10 00:31:25;;;;;;;42.30;32.42;;;20.00;99.90;;;;;;5058910;28;20265;-83
2023/07/10 00:33:52;;;;;;;43.30;33.08;;;20.00;99.90;;;;;;5059065;28;20225;-83
2023/07/10 00:36:26;;;;;;;45.63;33.05;;;20.00;99.90;;;;;;5059768;28;20615;-83
2023/07/10 00:38:51;;;;;;;43.60;30.95;;;19.90;99.90;;;;;;5045911;28;20182;-83
2023/07/10 00:41:17;;;;;;;53.30;34.67;;;19.80;99.90;;;;;;5058187;28;20197;-83
2023/07/10 00:43:55;;;;;;;47.45;34.58;;;19.80;99.90;;;;;;5039294;28;20547;-83
2023/07/10 00:46:46;;;;;;;45.20;32.25;;;19.80;99.90;;;;;;5038964;28;20166;-83
2023/07/10 00:49:19;;;;;;;49.60;31.60;;;19.70;99.90;;;;;;5038769;28;20167;-83
2023/07/10 00:52:05;;;;;;;42.50;29.48;;;19.70;99.90;;;;;;5038887;28;20205;-83
2023/07/10 00:54:40;;;;;;;47.60;31.23;;;19.70;99.90;;;;;;5039110;28;20201;-83
2023/07/10 00:57:14;;;;;;;47.85;32.95;;;19.70;99.90;;;;;;5039259;28;20216;-83
2023/07/10 00:59:42;;;;;;;51.45;34.20;;;19.70;99.90;;;;;;5039677;28;20163;-83
2023/07/10 01:02:07;;;;;;;46.88;32.25;;;19.60;99.90;;;;;;5057265;28;20208;-83
2023/07/10 01:04:34;;;;;;;48.28;32.53;;;19.70;99.90;;;;;;5039866;28;20198;-83
2023/07/10 01:07:00;;;;;;;45.33;31.23;;;19.80;99.90;;;;;;5057724;28;20166;-83
2023/07/10 01:09:27;;;;;;;45.65;32.25;;;19.90;99.90;;;;;;5076313;28;20725;-83
2023/07/10 01:11:53;;;;;;;46.53;31.70;;;19.90;99.90;;;;;;5060755;28;20653;-83
2023/07/10 01:14:20;;;;;;;45.20;31.77;;;19.80;99.90;;;;;;5061515;28;20209;-83
2023/07/10 01:16:47;;;;;;;47.55;31.52;;;19.90;99.90;;;;;;5067586;28;20650;-83
2023/07/10 01:19:32;;;;;;;46.33;30.77;;;19.90;99.90;;;;;;5065871;28;20170;-83
2023/07/10 01:21:58;;;;;;;44.65;30.95;;;20.00;99.90;;;;;;5063737;28;20181;-83
2023/07/10 01:24:24;;;;;;;46.45;31.40;;;20.00;99.90;;;;;;5061665;28;20201;-84
2023/07/10 01:26:51;;;;;;;45.83;31.08;;;20.00;99.90;;;;;;5079822;28;20158;-83
2023/07/10 01:29:21;;;;;;;41.83;30.60;;;20.00;99.90;;;;;;5061433;28;20173;-83
2023/07/10 01:31:50;;;;;;;45.47;32.65;;;19.90;99.90;;;;;;5062502;28;20181;-83
2023/07/10 01:34:18;;;;;;;55.83;33.05;;;19.90;99.90;;;;;;5061344;28;20194;-83
2023/07/10 01:36:45;;;;;;;43.20;31.60;;;19.90;99.90;;;;;;5059609;28;20176;-84
2023/07/10 01:39:14;;;;;;;48.85;32.75;;;19.90;99.90;;;;;;5059881;28;20185;-84
2023/07/10 01:41:42;;;;;;;47.72;33.55;;;19.90;99.90;;;;;;5060324;28;20587;-83
2023/07/10 01:44:25;;;;;;;44.67;32.78;;;20.00;99.90;;;;;;5077161;28;20707;-83
2023/07/10 01:46:51;;;;;;;48.05;34.78;;;20.00;99.90;;;;;;5076989;28;20162;-83
2023/07/10 01:49:21;;;;;;;52.22;36.65;;;19.90;99.90;;;;;;5058419;28;20303;-83
2023/07/10 01:51:48;;;;;;;54.30;37.50;;;19.90;99.90;;;;;;5058603;28;20184;-83
2023/07/10 01:54:16;;;;;;;55.50;37.67;;;19.80;99.90;;;;;;5076816;28;20193;-83
2023/07/10 01:56:42;;;;;;;58.50;38.33;;;19.80;99.90;;;;;;5057927;28;20186;-83
2023/07/10 01:59:10;;;;;;;58.50;40.28;;;19.80;99.90;;;;;;5058163;28;20646;-83
2023/07/10 02:01:35;;;;;;;67.55;42.20;;;19.70;99.90;;;;;;5057851;28;20196;-83
2023/07/10 02:04:02;;;;;;;62.95;41.13;;;19.70;99.90;;;;;;5056927;28;20194;-83
2023/07/10 02:06:28;;;;;;;67.13;41.83;;;19.70;99.90;;;;;;5074514;28;20169;-83
2023/07/10 02:08:55;;;;;;;62.40;40.85;;;19.70;99.90;;;;;;5060153;28;20265;-83
2023/07/10 02:11:20;;;;;;;64.63;42.20;;;19.70;99.90;;;;;;5036601;28;20178;-83
2023/07/10 02:13:46;;;;;;;64.00;40.05;;;19.80;99.90;;;;;;5036734;28;20663;-83
2023/07/10 02:16:14;;;;;;;57.25;37.72;;;19.80;99.90;;;;;;5054536;28;20202;-83
2023/07/10 02:18:40;;;;;;;68.38;42.72;;;19.90;99.90;;;;;;5036654;28;20269;-83
2023/07/10 02:21:06;;;;;;;66.93;42.97;;;19.90;99.90;;;;;;5036492;28;20221;-83
2023/07/10 02:23:34;;;;;;;62.13;41.17;;;19.80;99.90;;;;;;5054821;28;20220;-83
2023/07/10 02:26:01;;;;;;;66.60;41.63;;;19.80;99.90;;;;;;5040172;28;20189;-83
2023/07/10 02:28:27;;;;;;;66.50;41.58;;;19.80;99.90;;;;;;5040330;28;20744;-83
2023/07/10 02:30:52;;;;;;;70.40;44.53;;;19.90;99.90;;;;;;5040867;28;20194;-83
2023/07/10 02:33:19;;;;;;;67.60;42.65;;;19.80;99.90;;;;;;5058719;28;20228;-83
2023/07/10 02:35:49;;;;;;;71.65;44.92;;;19.80;99.90;;;;;;5042266;28;20207;-83
2023/07/10 02:38:15;;;;;;;69.40;44.00;;;19.90;99.90;;;;;;5042266;28;20720;-83
2023/07/10 02:40:43;;;;;;;79.47;45.08;;;19.90;99.90;;;;;;5042136;28;20708;-83
2023/07/10 02:43:09;;;;;;;81.97;47.65;;;19.90;99.90;;;;;;5041737;28;20258;-83
2023/07/10 02:45:36;;;;;;;74.03;44.47;;;19.90;99.90;;;;;;5040680;28;20607;-83
2023/07/10 02:48:02;;;;;;;77.35;44.92;;;19.90;99.90;;;;;;5057901;28;20204;-83
2023/07/10 02:50:28;;;;;;;71.10;44.97;;;19.80;99.90;;;;;;5039894;28;20185;-83
2023/07/10 02:52:54;;;;;;;82.63;49.85;;;19.90;99.90;;;;;;5057914;28;20171;-83
2023/07/10 02:55:20;;;;;;;85.45;49.25;;;19.90;99.90;;;;;;5039663;28;20276;-83
2023/07/10 02:57:45;;;;;;;87.88;48.13;;;19.90;99.90;;;;;;5039833;28;20317;-82
2023/07/10 03:00:11;;;;;;;82.60;48.05;;;20.00;99.90;;;;;;5039916;28;20635;-82
2023/07/10 03:02:37;;;;;;;80.95;46.90;;;20.00;99.90;;;;;;5057871;28;20170;-82
2023/07/10 03:05:04;;;;;;;82.72;46.17;;;20.00;99.90;;;;;;5039805;28;20202;-83
2023/07/10 03:07:30;;;;;;;81.50;46.90;;;20.00;99.90;;;;;;5039755;28;20549;-83
2023/07/10 03:09:56;;;;;;;78.28;45.72;;;20.00;99.90;;;;;;5057702;28;20621;-83
2023/07/10 03:12:22;;;;;;;76.68;42.92;;;19.90;99.90;;;;;;5057830;28;20182;-83
2023/07/10 03:14:49;;;;;;;74.57;42.78;;;19.90;99.90;;;;;;5039277;28;20704;-82
2023/07/10 03:17:15;;;;;;;79.18;42.25;;;19.90;99.90;;;;;;5039917;28;20658;-83
2023/07/10 03:19:41;;;;;;;84.13;44.65;;;19.90;99.90;;;;;;5059639;28;20190;-83
2023/07/10 03:22:07;;;;;;;76.75;43.47;;;19.90;99.90;;;;;;5042109;28;20533;-84
2023/07/10 03:24:33;;;;;;;83.90;43.75;;;19.90;99.90;;;;;;5061086;28;20191;-83
2023/07/10 03:26:58;;;;;;;97.50;45.42;;;19.90;99.90;;;;;;5042215;28;20174;-83
2023/07/10 03:29:25;;;;;;;80.25;42.47;;;19.80;99.90;;;;;;5043100;28;20178;-83
2023/07/10 03:31:52;;;;;;;74.88;40.40;;;19.90;99.90;;;;;;5043692;28;20204;-82
2023/07/10 03:34:18;;;;;;;75.90;41.55;;;19.90;99.90;;;;;;5039710;28;20233;-83
2023/07/10 03:36:44;;;;;;;72.18;40.20;;;20.00;99.90;;;;;;5038445;28;20263;-82
2023/07/10 03:39:12;;;;;;;65.88;40.10;;;20.00;99.90;;;;;;5073198;28;20670;-83
2023/07/10 03:41:38;;;;;;;73.20;40.13;;;20.00;99.90;;;;;;5059014;28;20189;-82
2023/07/10 03:44:04;;;;;;;65.63;38.90;;;20.00;99.90;;;;;;5076809;28;20189;-82
2023/07/10 03:46:30;;;;;;;70.88;39.05;;;20.10;99.90;;;;;;5077178;28;20227;-82
2023/07/10 03:48:56;;;;;;;67.05;38.05;;;20.00;99.90;;;;;;5077525;28;20229;-83
2023/07/10 03:51:22;;;;;;;58.63;35.53;;;20.00;99.90;;;;;;5059475;28;20202;-83
2023/07/10 03:53:48;;;;;;;58.10;34.33;;;20.00;99.90;;;;;;5059065;28;20223;-82
2023/07/10 03:56:14;;;;;;;58.08;34.47;;;20.00;99.90;;;;;;5076857;28;20201;-82
2023/07/10 03:58:44;;;;;;;60.50;35.55;;;20.00;99.90;;;;;;5059007;28;20699;-82
2023/07/10 04:01:11;;;;;;;59.33;37.85;;;19.90;99.90;;;;;;5058927;28;20174;-82
2023/07/10 04:03:39;;;;;;;61.60;35.05;;;19.90;99.90;;;;;;5077214;28;20190;-82
2023/07/10 04:06:06;;;;;;;63.05;37.03;;;19.90;99.90;;;;;;5059008;28;20696;-82
2023/07/10 04:08:36;;;;;;;56.83;35.88;;;19.80;99.90;;;;;;5070703;28;20182;-82
2023/07/10 04:11:09;;;;;;;66.38;38.38;;;19.80;99.90;;;;;;5051260;28;20171;-83
2023/07/10 04:13:35;;;;;;;56.97;36.88;;;19.70;99.90;;;;;;5068645;28;20194;-83
2023/07/10 04:16:04;;;;;;;55.83;36.75;;;19.80;99.90;;;;;;5064811;28;20230;-82
2023/07/10 04:18:32;;;;;;;60.13;36.92;;;19.70;99.90;;;;;;5045701;28;20175;-82
2023/07/10 04:20:59;;;;;;;64.82;36.45;;;19.70;99.90;;;;;;5047460;28;20205;-83
2023/07/10 04:23:25;;;;;;;54.33;35.78;;;19.70;99.90;;;;;;5042757;28;20202;-82
2023/07/10 04:25:51;;;;;;;63.70;37.63;;;19.70;99.90;;;;;;5044096;28;20210;-83
2023/07/10 04:28:17;;;;;;;55.92;37.83;;;19.70;99.90;;;;;;5061459;28;20182;-82
2023/07/10 04:30:46;;;;;;;59.75;37.72;;;19.70;99.90;;;;;;5044997;28;20183;-83
2023/07/10 04:33:13;;;;;;;55.63;37.38;;;19.70;99.90;;;;;;5045244;28;20182;-82
2023/07/10 04:35:40;;;;;;;61.08;38.45;;;19.80;99.90;;;;;;5044585;28;20202;-83
2023/07/10 04:38:07;;;;;;;62.80;41.20;;;19.70;99.90;;;;;;5070275;28;20185;-83
2023/07/10 04:40:33;;;;;;;66.60;40.90;;;19.60;99.90;;;;;;5065519;28;20182;-83
2023/07/10 04:43:00;;;;;;;65.80;40.88;;;19.70;99.90;;;;;;5066243;28;20181;-82
2023/07/10 04:45:26;;;;;;;63.38;41.65;;;19.70;99.90;;;;;;5065831;28;20220;-82
2023/07/10 04:47:52;;;;;;;64.93;41.70;;;19.70;99.90;;;;;;5065561;28;20185;-82
2023/07/10 04:50:17;;;;;;;64.82;40.80;;;19.60;99.90;;;;;;5088236;28;20190;-82
2023/07/10 04:52:43;;;;;;;61.00;40.00;;;19.60;99.90;;;;;;5070964;28;20174;-83
2023/07/10 04:55:09;;;;;;;58.78;37.85;;;19.60;99.90;;;;;;5072034;28;20213;-82
2023/07/10 04:57:35;;;;;;;57.92;37.75;;;19.60;99.90;;;;;;5069419;28;20634;-82
2023/07/10 05:00:00;;;;;;;57.63;39.58;;;19.60;99.90;;;;;;5068551;28;20170;-82
2023/07/10 05:02:26;;;;;;;53.92;36.47;;;19.50;99.90;;;;;;5070644;28;20182;-82
2023/07/10 05:04:52;;;;;;;53.22;35.60;;;19.50;99.90;;;;;;5074708;28;20201;-82
2023/07/10 05:07:18;;;;;;;50.28;33.92;;;19.40;99.90;;;;;;5075361;28;20173;-82
2023/07/10 05:09:43;;;;;;;49.50;34.38;;;19.40;99.90;;;;;;5075445;28;20193;-83
2023/07/10 05:12:09;;;;;;;47.00;30.77;;;19.30;99.90;;;;;;5073164;28;20182;-82
2023/07/10 05:14:35;;;;;;;44.47;30.35;;;19.30;99.90;;;;;;5075557;28;20205;-83
2023/07/10 05:17:01;;;;;;;44.22;29.35;;;19.30;99.90;;;;;;5091734;28;20178;-82
2023/07/10 05:19:26;;;;;;;46.83;30.25;;;19.30;99.90;;;;;;5094071;28;20166;-83
2023/07/10 05:21:52;;;;;;;39.78;27.00;;;19.20;99.90;;;;;;5094756;28;20178;-83
2023/07/10 05:24:18;;;;;;;40.22;26.02;;;19.20;99.90;;;;;;5076067;28;20265;-83
2023/07/10 05:26:44;;;;;;;35.35;23.23;;;19.30;99.90;;;;;;5077554;28;20215;-82
2023/07/10 05:29:09;;;;;;;30.10;23.20;;;19.20;99.90;;;;;;5078039;28;20181;-82
2023/07/10 05:31:35;;;;;;;30.75;23.48;;;19.20;99.90;;;;;;5076239;28;20166;-83
2023/07/10 05:34:01;;;;;;;32.45;23.33;;;19.20;99.90;;;;;;5076174;28;20197;-82
2023/07/10 05:36:27;;;;;;;34.08;21.65;;;19.20;99.90;;;;;;5076233;28;20240;-82
2023/07/10 05:38:52;;;;;;;29.80;21.38;;;19.20;99.90;;;;;;5074901;28;20185;-83
2023/07/10 05:41:19;;;;;;;30.70;22.88;;;19.20;99.90;;;;;;5072749;28;20216;-83
2023/07/10 05:43:45;;;;;;;29.80;22.10;;;19.20;99.90;;;;;;5073053;28;20193;-82
2023/07/10 05:46:12;;;;;;;33.40;22.67;;;19.20;99.90;;;;;;5073087;28;20169;-81
2023/07/10 05:48:38;;;;;;;32.40;22.33;;;19.20;99.90;;;;;;5071928;28;20181;-83
2023/07/10 05:51:04;;;;;;;30.92;22.33;;;19.30;99.90;;;;;;5086364;28;20273;-82
2023/07/10 05:53:33;;;;;;;28.83;21.42;;;19.30;99.90;;;;;;5085958;28;20174;-82
2023/07/10 05:56:00;;;;;;;30.65;22.42;;;19.30;99.90;;;;;;5065331;28;20205;-82
2023/07/10 05:58:28;;;;;;;30.52;21.92;;;19.30;99.90;;;;;;5066125;28;20170;-83
2023/07/10 06:00:57;;;;;;;28.52;21.08;;;19.30;99.90;;;;;;5086179;28;20169;-82
2023/07/10 06:03:23;;;;;;;30.42;21.77;;;19.30;99.90;;;;;;5070117;28;20627;-82
2023/07/10 06:05:54;;;;;;;27.80;20.15;;;19.30;99.90;;;;;;5062481;28;20177;-83
2023/07/10 06:08:20;;;;;;;29.75;20.80;;;19.30;99.90;;;;;;5079784;28;20264;-83
2023/07/10 06:10:46;;;;;;;26.25;20.17;;;19.40;99.90;;;;;;5061859;28;20280;-83
2023/07/10 06:13:11;;;;;;;25.90;21.95;;;19.30;99.90;;;;;;5061606;28;20593;-82
2023/07/10 06:15:45;;;;;;;28.13;20.55;;;19.30;99.90;;;;;;5061004;28;20209;-82
2023/07/10 06:18:13;;;;;;;30.10;19.05;;;19.30;99.90;;;;;;5061067;28;20199;-82
2023/07/10 06:20:39;;;;;;;23.40;17.77;;;19.30;99.90;;;;;;5079282;28;20220;-81
2023/07/10 06:23:05;;;;;;;25.88;16.58;;;19.30;99.90;;;;;;5061222;28;20174;-81
2023/07/10 06:25:31;;;;;;;19.05;14.27;;;19.20;99.90;;;;;;5079210;28;20217;-81
2023/07/10 06:27:58;;;;;;;19.60;12.80;;;19.30;99.90;;;;;;5079216;28;20525;-82
2023/07/10 06:30:24;;;;;;;18.92;14.38;;;19.30;99.90;;;;;;5079676;28;20190;-82
2023/07/10 06:32:50;;;;;;;17.02;11.60;;;19.40;99.90;;;;;;5061543;28;20649;-82
2023/07/10 06:35:16;;;;;;;19.38;12.05;;;19.30;99.90;;;;;;5062564;28;20205;-81
2023/07/10 06:37:44;;;;;;;17.60;10.88;;;19.30;99.90;;;;;;5061701;28;20181;-81
2023/07/10 06:40:13;;;;;;;16.48;11.55;;;19.30;99.90;;;;;;5067367;28;20297;-81
2023/07/10 06:42:40;;;;;;;15.50;11.45;;;19.20;99.90;;;;;;5085367;28;20170;-82
2023/07/10 06:45:06;;;;;;;17.58;12.85;;;19.20;99.90;;;;;;5070040;28;20580;-82
2023/07/10 06:47:38;;;;;;;19.77;14.77;;;19.20;99.90;;;;;;5066634;28;20209;-82
2023/07/10 06:50:04;;;;;;;21.77;15.07;;;19.20;99.90;;;;;;5057233;28;20178;-81
2023/07/10 06:52:29;;;;;;;18.73;14.80;;;19.20;99.90;;;;;;5068889;28;20729;-82
2023/07/10 06:54:55;;;;;;;18.55;14.23;;;19.20;99.90;;;;;;5066128;28;20300;-82
2023/07/10 06:57:21;;;;;;;21.75;14.88;;;19.20;99.90;;;;;;5066783;28;20634;-82
2023/07/10 06:59:47;;;;;;;22.25;15.45;;;19.30;99.90;;;;;;5063875;28;20212;-82
2023/07/10 07:02:13;;;;;;;21.80;15.02;;;19.30;99.90;;;;;;5057942;28;20186;-82
2023/07/10 07:04:40;;;;;;;25.10;17.33;;;19.40;99.90;;;;;;5069155;28;20201;-82
2023/07/10 07:07:06;;;;;;;21.42;17.17;;;19.40;99.90;;;;;;5101081;28;20180;-82
2023/07/10 07:09:33;;;;;;;25.95;16.90;;;19.50;99.90;;;;;;5060432;28;20187;-82
2023/07/10 07:11:59;;;;;;;19.85;15.40;;;19.50;99.90;;;;;;5063305;28;20626;-82
2023/07/10 07:14:26;;;;;;;21.10;16.90;;;19.60;99.90;;;;;;5081038;28;20189;-82
2023/07/10 07:16:53;;;;;;;24.70;15.70;;;19.60;99.90;;;;;;5064242;28;20201;-82
2023/07/10 07:19:19;;;;;;;21.95;16.48;;;19.60;99.90;;;;;;5076277;28;20190;-82
2023/07/10 07:21:45;;;;;;;27.58;17.40;;;19.60;99.90;;;;;;5077832;28;20264;-82
2023/07/10 07:24:10;;;;;;;25.13;15.30;;;19.50;99.90;;;;;;5089480;28;20536;-83
2023/07/10 07:26:36;;;;;;;28.80;17.13;;;19.50;99.90;;;;;;5077659;28;20182;-82
2023/07/10 07:29:02;;;;;;;20.13;15.52;;;19.40;99.90;;;;;;5060642;28;20649;-82
2023/07/10 07:31:28;;;;;;;24.55;16.23;;;19.40;99.90;;;;;;5059695;28;20227;-80
2023/07/10 07:33:54;;;;;;;25.33;17.58;;;19.50;99.90;;;;;;5070134;28;20294;-82
2023/07/10 07:36:20;;;;;;;23.30;17.67;;;19.50;99.90;;;;;;5081346;28;20221;-81
2023/07/10 07:38:46;;;;;;;21.05;15.75;;;19.60;99.90;;;;;;5086442;28;20654;-81
2023/07/10 07:41:13;;;;;;;18.17;14.13;;;19.60;99.90;;;;;;5086947;28;20185;-82
2023/07/10 07:43:39;;;;;;;17.77;12.90;;;19.70;99.90;;;;;;5058982;28;20285;-82
2023/07/10 07:46:05;;;;;;;17.67;12.05;;;19.60;99.90;;;;;;5074537;28;20210;-82
2023/07/10 07:48:31;;;;;;;16.65;11.52;;;19.70;99.90;;;;;;5064690;28;20182;-82
2023/07/10 07:51:02;;;;;;;13.98;10.02;;;19.70;99.90;;;;;;5066026;28;20192;-82
2023/07/10 07:53:30;;;;;;;10.57;7.80;;;19.70;99.90;;;;;;5061867;28;20214;-82
2023/07/10 07:55:56;;;;;;;10.23;6.78;;;19.90;99.90;;;;;;5070633;28;20698;-82
2023/07/10 07:58:22;;;;;;;10.00;6.47;;;19.90;99.90;;;;;;5058673;28;20197;-81
2023/07/10 08:00:49;;;;;;;10.25;6.25;;;19.90;99.90;;;;;;5082141;28;20185;-81
2023/07/10 08:03:15;;;;;;;9.77;6.22;;;19.90;99.90;;;;;;5074132;28;20230;-82
2023/07/10 08:05:41;;;;;;;9.75;6.32;;;20.00;99.90;;;;;;5075799;28;20194;-82
2023/07/10 08:08:10;;;;;;;10.93;5.95;;;20.10;99.90;;;;;;5080327;28;20204;-82
2023/07/10 08:10:40;;;;;;;11.50;6.10;;;20.10;99.90;;;;;;5060760;28;20280;-82
2023/07/10 08:13:09;;;;;;;10.95;5.85;;;20.20;99.90;;;;;;5057517;28;20189;-82
2023/07/10 08:15:34;;;;;;;10.43;5.75;;;20.30;99.90;;;;;;5056091;28;20209;-81
2023/07/10 08:18:01;;;;;;;9.73;6.05;;;20.50;99.90;;;;;;5074220;28;20718;-81
2023/07/10 08:20:27;;;;;;;9.82;5.55;;;20.60;99.90;;;;;;5071711;28;20725;-81
2023/07/10 08:22:53;;;;;;;7.70;5.55;;;20.60;99.90;;;;;;5057837;28;20185;-81
2023/07/10 08:25:19;;;;;;;13.07;6.28;;;20.70;99.90;;;;;;5079144;28;20201;-82
2023/07/10 08:27:45;;;;;;;8.55;5.75;;;20.60;99.90;;;;;;5070902;28;20292;-81
2023/07/10 08:30:12;;;;;;;10.00;6.00;;;20.80;99.90;;;;;;5075687;28;20243;-81
2023/07/10 08:32:38;;;;;;;11.10;6.40;;;20.90;99.90;;;;;;5074609;28;20169;-81
2023/07/10 08:35:06;;;;;;;9.60;6.45;;;21.00;99.90;;;;;;5081599;28;20694;-81
2023/07/10 08:37:33;;;;;;;9.05;6.43;;;21.10;99.90;;;;;;5064633;28;20186;-81
2023/07/10 08:39:59;;;;;;;12.77;6.28;;;21.10;99.90;;;;;;5052297;28;20186;-82
2023/07/10 08:42:29;;;;;;;11.85;7.13;;;21.00;99.90;;;;;;5075245;28;20194;-82
2023/07/10 08:44:56;;;;;;;9.05;6.60;;;21.10;99.90;;;;;;5072609;28;20201;-82
2023/07/10 08:47:23;;;;;;;10.80;7.00;;;21.00;99.90;;;;;;5071778;28;20192;-82
2023/07/10 08:50:01;;;;;;;10.05;6.68;;;21.00;99.90;;;;;;5076801;28;20561;-82
2023/07/10 08:52:47;;;;;;;11.75;7.15;;;21.10;99.90;;;;;;5055167;28;20232;-82
2023/07/10 08:55:22;;;;;;;12.82;6.60;;;21.30;99.90;;;;;;5078277;28;20209;-82
2023/07/10 08:57:57;;;;;;;9.88;7.05;;;21.60;99.90;;;;;;5053341;28;20650;-82
2023/07/10 09:00:26;;;;;;;8.05;6.97;;;21.70;99.90;;;;;;5070461;28;20178;-82
2023/07/10 09:02:56;;;;;;;12.13;7.07;;;21.90;99.90;;;;;;5077107;28;20178;-82
2023/07/10 09:05:27;;;;;;;12.45;6.82;;;22.00;99.90;;;;;;5071141;28;20206;-83
2023/07/10 09:07:56;;;;;;;9.43;6.20;;;22.20;99.90;;;;;;5062049;28;20178;-82
2023/07/10 09:10:36;;;;;;;9.00;7.03;;;22.30;99.90;;;;;;5064900;28;20287;-83
2023/07/10 09:13:03;;;;;;;12.50;7.65;;;22.20;99.90;;;;;;5072106;28;20235;-82
2023/07/10 09:15:51;;;;;;;12.90;7.53;;;22.10;99.90;;;;;;5058219;28;20262;-82
2023/07/10 09:18:20;;;;;;;10.40;8.48;;;22.20;99.90;;;;;;5056637;28;20181;-82
2023/07/10 09:20:48;;;;;;;12.10;7.65;;;22.20;99.90;;;;;;5073179;28;20193;-82
2023/07/10 09:23:24;;;;;;;12.60;7.95;;;22.40;99.90;;;;;;5057459;28;20189;-82
2023/07/10 09:26:08;;;;;;;10.18;7.50;;;22.80;99.90;;;;;;5057110;28;20268;-82
2023/07/10 09:28:37;;;;;;;10.63;7.65;;;23.00;99.90;;;;;;5088360;28;20555;-81
2023/07/10 09:31:38;;;;;;;15.80;7.55;;;23.20;99.90;;;;;;5060398;28;20186;-82
2023/07/10 09:34:04;;;;;;;12.45;7.47;;;23.20;99.90;;;;;;5074555;28;20715;-81
2023/07/10 09:36:30;;;;;;;11.15;7.88;;;23.10;99.90;;;;;;5064706;28;20209;-81
2023/07/10 09:38:57;;;;;;;14.20;8.80;;;22.80;99.90;;;;;;5066213;28;20555;-81
2023/07/10 09:41:28;;;;;;;13.05;7.75;;;22.50;99.90;;;;;;5058532;28;20226;-83
2023/07/10 09:44:00;;;;;;;10.70;6.32;;;22.60;99.90;;;;;;5068797;28;22102;-81
2023/07/10 09:46:29;;;;;;;6.55;4.97;;;23.10;99.90;;;;;;5066281;28;20207;-81
2023/07/10 09:49:00;;;;;;;6.82;4.00;;;23.60;99.90;;;;;;5067814;28;20542;-79
2023/07/10 09:51:27;;;;;;;7.45;5.47;;;23.90;36.60;;;;;;5081780;28;20211;-81
2023/07/10 09:54:04;;;;;;;10.75;6.65;;;23.80;70.00;;;;;;5066810;28;20704;-81
2023/07/10 09:56:35;;;;;;;10.43;6.47;;;23.60;99.90;;;;;;5082705;28;20193;-81
2023/07/10 09:59:16;;;;;;;10.07;4.95;;;23.60;99.90;;;;;;5069591;28;20186;-81
2023/07/10 10:01:42;;;;;;;9.35;4.75;;;23.50;95.70;;;;;;5083220;28;20177;-80
2023/07/10 10:04:10;;;;;;;8.30;4.85;;;23.70;97.80;;;;;;5065978;28;20220;-80
2023/07/10 10:06:41;;;;;;;5.85;4.45;;;23.80;80.20;;;;;;5064508;28;20239;-80
2023/07/10 10:09:25;;;;;;;8.75;5.53;;;23.80;72.40;;;;;;5071988;28;20186;-81
2023/07/10 10:11:55;;;;;;;8.38;6.13;;;23.50;83.30;;;;;;5068810;28;20185;-81
2023/07/10 10:14:43;;;;;;;9.90;6.88;;;23.50;36.90;;;;;;5087424;28;20205;-82
2023/07/10 10:17:13;;;;;;;10.82;7.35;;;23.40;99.90;;;;;;5070662;28;20189;-82
2023/07/10 10:19:43;;;;;;;12.43;9.55;;;23.10;99.90;;;;;;5071069;28;20174;-81
2023/07/10 10:22:14;;;;;;;20.23;10.27;;;23.10;99.90;;;;;;5072849;28;20162;-81
2023/07/10 10:24:40;;;;;;;12.68;9.27;;;23.00;99.90;;;;;;5071715;28;20201;-80
2023/07/10 10:27:24;;;;;;;11.50;9.57;;;23.00;99.90;;;;;;5072675;28;20181;-80
2023/07/10 10:29:55;;;;;;;12.48;8.55;;;22.70;99.90;;;;;;5075524;28;20181;-81
2023/07/10 10:32:30;;;;;;;11.60;5.90;;;22.70;99.90;;;;;;5072786;28;20189;-80
2023/07/10 10:35:15;;;;;;;9.45;5.22;;;22.70;41.70;;;;;;5075412;28;20212;-80
2023/07/10 10:37:49;;;;;;;8.63;4.57;;;23.00;1.00;;;;;;5063941;28;20209;-80
2023/07/10 10:40:24;;;;;;;7.50;4.00;;;23.50;1.00;;;;;;5072339;28;20174;-80
2023/07/10 10:42:58;;;;;;;8.05;4.20;;;23.90;1.00;;;;;;5079075;28;20687;-79
2023/07/10 10:45:39;;;;;;;8.88;4.07;;;24.20;1.00;;;;;;5059442;28;20685;-80
2023/07/10 10:48:30;;;;;;;7.07;4.15;;;24.50;1.00;;;;;;5081619;28;20652;-80
2023/07/10 10:51:05;;;;;;;7.13;3.75;;;24.80;1.00;;;;;;5062202;28;20193;-80
2023/07/10 10:53:47;;;;;;;6.28;3.35;;;24.70;1.00;;;;;;5075909;28;20180;-80
2023/07/10 10:56:22;;;;;;;6.85;3.50;;;24.90;99.90;;;;;;5070645;28;20208;-80
2023/07/10 10:59:06;;;;;;;10.00;4.90;;;24.90;1.00;;;;;;5064109;28;20174;-80
2023/07/10 11:01:36;;;;;;;5.30;3.20;;;24.70;99.90;;;;;;5080079;28;20177;-80
2023/07/10 11:04:39;;;;;;;5.57;3.60;;;24.70;99.90;;;;;;5072864;28;20648;-79
2023/07/10 11:07:09;;;;;;;8.93;3.40;;;24.30;1.00;;;;;;5066524;28;20268;-80
2023/07/10 11:09:47;;;;;;;6.78;3.50;;;24.30;1.00;;;;;;5063398;28;20211;-80
2023/07/10 11:12:22;;;;;;;5.28;3.20;;;24.40;1.00;;;;;;5059000;28;20208;-80
2023/07/10 11:14:50;;;;;;;7.50;3.47;;;24.60;1.00;;;;;;5055295;28;20429;-80
2023/07/10 11:17:16;;;;;;;7.47;4.00;;;24.80;99.90;;;;;;5057387;28;20209;-81
2023/07/10 11:19:44;;;;;;;5.55;3.47;;;25.10;1.00;;;;;;5069048;28;20196;-81
2023/07/10 11:22:31;;;;;;;5.63;3.50;;;25.30;25.20;;;;;;5085957;28;20158;-79
2023/07/10 11:25:02;;;;;;;8.20;3.63;;;25.00;1.00;;;;;;5078771;28;20228;-79
2023/07/10 11:27:31;;;;;;;5.45;3.65;;;24.90;1.00;;;;;;5061723;28;20214;-79
2023/07/10 11:30:07;;;;;;;5.95;3.42;;;24.70;99.90;;;;;;5061822;28;20511;-79
2023/07/10 11:32:54;;;;;;;8.32;4.20;;;24.80;99.90;;;;;;5061819;28;20170;-80
2023/07/10 11:35:21;;;;;;;6.03;3.60;;;24.80;99.90;;;;;;5061909;28;20206;-80
2023/07/10 11:37:47;;;;;;;8.85;3.67;;;24.80;1.00;;;;;;5079011;28;20208;-79
2023/07/10 11:40:37;;;;;;;6.55;3.90;;;24.90;99.90;;;;;;5079906;28;20638;-80
2023/07/10 11:43:25;;;;;;;5.00;3.80;;;25.20;1.00;;;;;;5065121;28;20285;-79
2023/07/10 11:45:54;;;;;;;5.50;3.88;;;25.30;1.00;;;;;;5087408;28;20204;-80
2023/07/10 11:48:39;;;;;;;8.35;4.28;;;25.30;99.90;;;;;;5082441;28;21166;-80
2023/07/10 11:51:27;;;;;;;6.72;4.35;;;25.20;99.90;;;;;;5085447;28;20185;-80
2023/07/10 11:54:05;;;;;;;9.32;3.90;;;25.50;1.00;;;;;;5061156;28;20201;-79
2023/07/10 11:56:32;;;;;;;6.25;3.28;;;25.60;99.90;;;;;;5051194;28;20200;-80
2023/07/10 11:58:58;;;;;;;8.05;3.38;;;25.90;99.90;;;;;;5078228;28;20591;-80
2023/07/10 12:01:26;;;;;;;7.55;3.67;;;26.20;1.00;;;;;;5060916;28;20173;-80
2023/07/10 12:03:54;;;;;;;6.80;2.90;;;26.10;99.90;;;;;;5044211;28;20690;-80
2023/07/10 12:06:23;;;;;;;11.52;3.13;;;25.80;1.00;;;;;;5060668;28;20185;-79
2023/07/10 12:08:50;;;;;;;5.13;2.85;;;25.60;99.90;;;;;;5061832;28;20585;-80
2023/07/10 12:11:31;;;;;;;7.40;3.20;;;26.00;1.00;;;;;;5079272;28;20206;-80
2023/07/10 12:14:18;;;;;;;5.63;2.85;;;25.90;1.00;;;;;;5059467;28;20205;-79
2023/07/10 12:16:53;;;;;;;6.32;3.00;;;26.00;1.00;;;;;;5042542;28;20273;-79
2023/07/10 12:19:26;;;;;;;5.95;2.83;;;25.70;1.00;;;;;;5077787;28;20181;-80
2023/07/10 12:21:51;;;;;;;8.52;2.60;;;25.40;1.00;;;;;;5080008;28;20390;-80
2023/07/10 12:24:17;;;;;;;5.95;3.00;;;25.30;1.00;;;;;;5060687;28;20248;-81
2023/07/10 12:26:49;;;;;;;4.43;2.40;;;25.20;99.90;;;;;;5062394;28;20190;-79
2023/07/10 12:29:15;;;;;;;7.90;2.60;;;25.30;1.00;;;;;;5080269;28;20264;-80
2023/07/10 12:31:42;;;;;;;3.85;2.25;;;25.50;1.00;;;;;;5081507;28;20232;-80
2023/07/10 12:34:24;;;;;;;5.97;2.65;;;25.60;1.00;;;;;;5078547;28;20216;-80
2023/07/10 12:36:52;;;;;;;6.35;2.70;;;26.00;99.90;;;;;;5059475;28;20224;-80
2023/07/10 12:39:19;;;;;;;7.03;2.55;;;26.40;99.90;;;;;;5062618;28;20213;-79
2023/07/10 12:41:45;;;;;;;3.00;1.98;;;26.70;1.00;;;;;;5060877;28;20185;-79
2023/07/10 12:44:41;;;;;;;6.38;2.83;;;26.60;56.70;;;;;;5062607;28;20198;-79